createdAt,value
2018-09-22T00:01:34.270Z,43.59
2018-09-22T00:04:02.911Z,44.31
2018-09-22T00:06:31.489Z,44.06
2018-09-22T00:09:00.639Z,43.82
2018-09-22T00:11:29.482Z,43.87
2018-09-22T00:13:58.060Z,44.11
2018-09-22T00:16:27.204Z,43.88
2018-09-22T00:18:55.857Z,43.30
2018-09-22T00:21:27.296Z,43.85
2018-09-22T00:23:55.904Z,43.42
2018-09-22T00:26:25.075Z,43.21
2018-09-22T00:28:53.735Z,43.36
2018-09-22T00:31:22.455Z,43.23
2018-09-22T00:33:51.031Z,43.13
2018-09-22T00:36:19.660Z,43.48
2018-09-22T00:38:48.399Z,43.61
2018-09-22T00:41:16.981Z,43.66
2018-09-22T00:43:45.615Z,43.31
2018-09-22T00:46:14.321Z,43.97
2018-09-22T00:48:42.905Z,44.01
2018-09-22T00:51:11.863Z,44.22
2018-09-22T00:53:40.527Z,44.12
2018-09-22T00:56:10.982Z,44.42
2018-09-22T00:58:39.599Z,44.06
2018-09-22T01:01:08.255Z,44.48
2018-09-22T01:03:36.838Z,44.64
2018-09-22T01:06:05.496Z,45.03
2018-09-22T01:08:34.781Z,44.09
2018-09-22T01:11:03.632Z,44.49
2018-09-22T01:13:32.536Z,44.67
2018-09-22T01:16:01.105Z,44.46
2018-09-22T01:18:29.680Z,44.61
2018-09-22T01:20:58.882Z,44.71
2018-09-22T01:23:27.456Z,44.65
2018-09-22T01:25:56.129Z,44.63
2018-09-22T01:28:25.607Z,45.06
2018-09-22T01:30:54.305Z,45.18
2018-09-22T01:33:22.889Z,44.84
2018-09-22T01:35:52.183Z,44.91
2018-09-22T01:38:20.848Z,45.82
2018-09-22T01:40:49.399Z,45.52
2018-09-22T01:43:18.064Z,45.25
2018-09-22T01:45:46.727Z,45.68
2018-09-22T01:48:16.040Z,46.09
2018-09-22T01:50:44.734Z,45.65
2018-09-22T01:53:13.828Z,45.54
2018-09-22T01:55:42.404Z,46.00
2018-09-22T01:58:11.638Z,45.73
2018-09-22T02:00:40.760Z,46.12
2018-09-22T02:03:09.340Z,46.42
2018-09-22T02:05:37.968Z,46.62
2018-09-22T02:08:06.658Z,46.99
2018-09-22T02:10:35.307Z,46.42
2018-09-22T02:13:04.947Z,46.55
2018-09-22T02:15:33.864Z,46.36
2018-09-22T02:18:02.429Z,46.54
2018-09-22T02:20:31.071Z,46.80
2018-09-22T02:22:59.640Z,46.59
2018-09-22T02:25:28.686Z,46.97
2018-09-22T02:27:57.366Z,47.01
2018-09-22T02:30:25.980Z,46.71
2018-09-22T02:32:54.544Z,46.95
2018-09-22T02:35:23.791Z,47.13
2018-09-22T02:37:52.370Z,47.08
2018-09-22T02:40:21.316Z,47.38
2018-09-22T02:42:50.267Z,48.00
2018-09-22T02:45:18.848Z,47.84
2018-09-22T02:47:47.447Z,47.47
2018-09-22T02:50:16.172Z,47.42
2018-09-22T02:52:45.437Z,48.24
2018-09-22T02:55:15.888Z,48.29
2018-09-22T02:57:44.940Z,47.62
2018-09-22T03:00:13.515Z,47.93
2018-09-22T03:02:42.136Z,47.88
2018-09-22T03:05:10.742Z,48.26
2018-09-22T03:07:39.322Z,47.97
2018-09-22T03:10:08.052Z,47.61
2018-09-22T03:12:36.682Z,48.41
2018-09-22T03:15:06.351Z,48.18
2018-09-22T03:17:35.196Z,48.33
2018-09-22T03:20:04.573Z,47.82
2018-09-22T03:22:33.172Z,48.26
2018-09-22T03:25:01.778Z,48.36
2018-09-22T03:27:30.415Z,48.44
2018-09-22T03:29:59.048Z,47.74
2018-09-22T03:32:28.077Z,48.46
2018-09-22T03:34:56.664Z,47.92
2018-09-22T03:37:25.268Z,48.36
2018-09-22T03:39:53.935Z,48.32
2018-09-22T03:42:22.892Z,48.66
2018-09-22T03:44:51.476Z,48.94
2018-09-22T03:47:20.148Z,48.87
2018-09-22T03:49:48.736Z,49.20
2018-09-22T03:52:17.723Z,49.54
2018-09-22T03:54:46.423Z,49.28
2018-09-22T03:57:15.016Z,49.10
2018-09-22T03:59:43.599Z,49.13
2018-09-22T04:02:12.543Z,49.81
2018-09-22T04:04:41.131Z,49.89
2018-09-22T04:07:09.706Z,49.68
2018-09-22T04:09:38.668Z,50.20
2018-09-22T04:12:07.303Z,50.21
2018-09-22T04:14:35.871Z,50.59
2018-09-22T04:17:04.496Z,50.30
2018-09-22T04:19:33.100Z,50.96
2018-09-22T04:22:01.699Z,50.36
2018-09-22T04:24:30.877Z,50.33
2018-09-22T04:26:59.456Z,50.31
2018-09-22T04:29:28.028Z,50.50
2018-09-22T04:31:56.659Z,50.51
2018-09-22T04:34:25.288Z,50.76
2018-09-22T04:36:53.874Z,51.24
2018-09-22T04:39:23.290Z,50.78
2018-09-22T04:41:51.944Z,50.69
2018-09-22T04:44:20.533Z,51.37
2018-09-22T04:46:49.151Z,50.90
2018-09-22T04:49:17.739Z,50.82
2018-09-22T04:51:46.337Z,51.37
2018-09-22T04:54:14.959Z,50.64
2018-09-22T04:56:43.563Z,51.23
2018-09-22T04:59:12.143Z,51.02
2018-09-22T05:01:40.780Z,51.51
2018-09-22T05:04:09.355Z,51.56
2018-09-22T05:06:37.941Z,51.25
2018-09-22T05:09:09.934Z,51.58
2018-09-22T05:11:38.891Z,52.09
2018-09-22T05:14:07.503Z,52.28
2018-09-22T05:16:36.516Z,52.35
2018-09-22T05:19:05.229Z,52.57
2018-09-22T05:21:33.824Z,53.20
2018-09-22T05:24:02.587Z,53.05
2018-09-22T05:26:31.163Z,52.73
2018-09-22T05:28:59.768Z,52.75
2018-09-22T05:31:28.399Z,52.77
2018-09-22T05:33:56.993Z,53.42
2018-09-22T05:36:25.573Z,52.60
2018-09-22T05:38:54.317Z,52.56
2018-09-22T05:41:22.920Z,52.50
2018-09-22T05:43:51.501Z,53.05
2018-09-22T05:46:20.160Z,52.61
2018-09-22T05:48:48.737Z,52.60
2018-09-22T05:51:17.324Z,52.82
2018-09-22T05:53:46.340Z,52.69
2018-09-22T05:56:14.944Z,52.65
2018-09-22T05:58:43.591Z,53.21
2018-09-22T06:01:12.322Z,53.14
2018-09-22T06:03:40.967Z,53.40
2018-09-22T06:06:09.530Z,53.18
2018-09-22T06:08:38.216Z,53.14
2018-09-22T06:11:07.008Z,53.29
2018-09-22T06:13:35.588Z,52.90
2018-09-22T06:16:04.207Z,53.62
2018-09-22T06:18:32.795Z,53.39
2018-09-22T06:21:01.377Z,53.62
2018-09-22T06:23:30.105Z,53.66
2018-09-22T06:25:58.696Z,53.94
2018-09-22T06:28:27.712Z,53.10
2018-09-22T06:30:56.341Z,52.81
2018-09-22T06:33:25.153Z,52.72
2018-09-22T06:35:53.728Z,53.09
2018-09-22T06:38:22.404Z,52.57
2018-09-22T06:40:51.978Z,52.79
2018-09-22T06:43:20.564Z,52.42
2018-09-22T06:45:49.264Z,51.68
2018-09-22T06:48:17.888Z,51.42
2018-09-22T06:50:46.472Z,51.11
2018-09-22T06:53:15.159Z,50.78
2018-09-22T06:55:43.772Z,50.85
2018-09-22T06:58:12.355Z,50.59
2018-09-22T07:00:41.024Z,49.46
2018-09-22T07:03:09.600Z,48.99
2018-09-22T07:05:38.219Z,48.68
2018-09-22T07:08:06.846Z,47.82
2018-09-22T07:10:35.411Z,46.92
2018-09-22T07:13:04.068Z,46.25
2018-09-22T07:15:32.731Z,46.15
2018-09-22T07:18:01.316Z,46.38
2018-09-22T07:20:29.905Z,47.01
2018-09-22T07:23:04.395Z,46.93
2018-09-22T07:25:32.979Z,46.69
2018-09-22T07:28:01.551Z,46.56
2018-09-22T07:30:30.180Z,46.91
2018-09-22T07:32:58.788Z,45.82
2018-09-22T07:35:27.381Z,45.45
2018-09-22T07:37:56.247Z,45.25
2018-09-22T07:40:24.868Z,45.25
2018-09-22T07:42:53.479Z,46.88
2018-09-22T07:45:22.166Z,47.79
2018-09-22T07:47:50.744Z,46.39
2018-09-22T07:50:19.329Z,46.63
2018-09-22T07:52:47.985Z,46.32
2018-09-22T07:55:16.660Z,46.17
2018-09-22T07:57:45.236Z,44.90
2018-09-22T08:00:13.863Z,45.13
2018-09-22T08:02:42.430Z,44.52
2018-09-22T08:05:11.008Z,44.37
2018-09-22T08:07:39.707Z,42.74
2018-09-22T08:10:08.297Z,42.12
2018-09-22T08:12:36.892Z,41.73
2018-09-22T08:15:05.961Z,41.03
2018-09-22T08:17:34.553Z,40.83
2018-09-22T08:20:03.172Z,40.27
2018-09-22T08:22:31.918Z,39.19
2018-09-22T08:25:00.497Z,38.30
2018-09-22T08:27:29.579Z,37.66
2018-09-22T08:29:58.280Z,37.06
2018-09-22T08:32:26.851Z,37.16
2018-09-22T08:34:55.448Z,38.00
2018-09-22T08:37:24.365Z,38.34
2018-09-22T08:39:53.026Z,38.44
2018-09-22T08:42:21.644Z,38.00
2018-09-22T08:44:50.429Z,37.90
2018-09-22T08:47:18.979Z,38.12
2018-09-22T08:49:47.580Z,37.48
2018-09-22T08:52:16.281Z,36.79
2018-09-22T08:54:44.880Z,36.92
2018-09-22T08:57:13.460Z,36.72
2018-09-22T08:59:42.119Z,36.21
2018-09-22T09:02:10.720Z,36.82
2018-09-22T09:04:39.311Z,36.19
2018-09-22T09:07:07.930Z,35.05
2018-09-22T09:09:36.527Z,35.37
2018-09-22T09:12:05.105Z,34.49
2018-09-22T09:14:33.739Z,35.11
2018-09-22T09:17:02.334Z,35.73
2018-09-22T09:19:30.944Z,33.73
2018-09-22T09:21:59.648Z,32.58
2018-09-22T09:24:28.224Z,32.76
2018-09-22T09:26:56.819Z,32.06
2018-09-22T09:29:25.456Z,31.87
2018-09-22T09:31:54.099Z,32.26
2018-09-22T09:34:22.672Z,33.20
2018-09-22T09:36:51.376Z,32.96
2018-09-22T09:39:19.936Z,33.41
2018-09-22T09:41:48.533Z,34.08
2018-09-22T09:44:17.147Z,34.13
2018-09-22T09:46:45.792Z,33.16
2018-09-22T09:49:14.435Z,32.21
2018-09-22T09:51:43.131Z,32.93
2018-09-22T09:54:11.720Z,33.39
2018-09-22T09:56:40.314Z,34.34
2018-09-22T09:59:09.057Z,32.99
2018-09-22T10:01:37.624Z,32.95
2018-09-22T10:04:06.211Z,32.32
2018-09-22T10:06:35.004Z,31.35
2018-09-22T10:09:03.932Z,29.86
2018-09-22T10:11:32.508Z,30.39
2018-09-22T10:14:01.175Z,29.08
2018-09-22T10:16:29.785Z,28.50
2018-09-22T10:18:58.364Z,28.47
2018-09-22T10:21:27.064Z,27.58
2018-09-22T10:23:55.671Z,27.66
2018-09-22T10:26:24.247Z,26.64
2018-09-22T10:28:52.888Z,26.68
2018-09-22T10:31:21.575Z,26.05
2018-09-22T10:33:50.156Z,26.47
2018-09-22T10:36:19.220Z,26.96
2018-09-22T10:38:47.808Z,26.11
2018-09-22T10:41:16.443Z,26.12
2018-09-22T10:43:45.152Z,25.77
2018-09-22T10:46:13.763Z,25.02
2018-09-22T10:48:42.344Z,25.32
2018-09-22T10:51:11.019Z,26.80
2018-09-22T10:53:39.614Z,26.04
2018-09-22T10:56:08.612Z,26.79
2018-09-22T10:58:37.704Z,27.11
2018-09-22T11:01:06.316Z,28.25
2018-09-22T11:03:34.893Z,28.52
2018-09-22T11:06:03.560Z,28.81
2018-09-22T11:08:32.185Z,28.72
2018-09-22T11:11:00.779Z,28.20
2018-09-22T11:13:29.427Z,28.52
2018-09-22T11:15:58.053Z,28.78
2018-09-22T11:18:26.659Z,29.75
2018-09-22T11:20:55.297Z,29.86
2018-09-22T11:23:23.924Z,29.80
2018-09-22T11:25:52.500Z,29.51
2018-09-22T11:28:21.671Z,29.54
2018-09-22T11:33:18.431Z,23.47
2018-09-22T11:35:47.047Z,20.68
2018-09-22T11:38:15.681Z,17.70
2018-09-22T11:40:44.664Z,15.20
2018-09-22T11:43:13.308Z,16.55
2018-09-22T11:45:41.922Z,19.70
2018-09-22T11:48:10.503Z,22.32
2018-09-22T11:50:39.111Z,24.39
2018-09-22T11:53:07.731Z,25.92
2018-09-22T11:55:36.316Z,24.83
2018-09-22T11:58:05.018Z,23.15
2018-09-22T12:00:33.620Z,21.78
2018-09-22T12:03:02.261Z,23.41
2018-09-22T12:05:30.904Z,25.73
2018-09-22T12:07:59.482Z,26.24
2018-09-22T12:10:28.097Z,27.92
2018-09-22T12:12:56.819Z,28.01
2018-09-22T12:15:25.462Z,28.80
2018-09-22T12:17:54.145Z,29.21
2018-09-22T12:20:22.769Z,29.57
2018-09-22T12:22:51.363Z,29.46
2018-09-22T12:25:19.972Z,29.76
2018-09-22T12:27:48.643Z,30.47
2018-09-22T12:30:17.247Z,29.69
2018-09-22T12:32:45.831Z,29.64
2018-09-22T12:35:14.453Z,29.42
2018-09-22T12:37:43.064Z,30.16
2018-09-22T12:40:11.672Z,30.09
2018-09-22T12:42:40.383Z,29.49
2018-09-22T12:45:08.976Z,28.38
2018-09-22T12:47:37.587Z,28.17
2018-09-22T12:50:06.238Z,28.56
2018-09-22T12:52:34.811Z,27.10
2018-09-22T12:55:03.434Z,26.68
2018-09-22T12:57:32.428Z,26.13
2018-09-22T13:00:01.070Z,26.86
2018-09-22T13:02:29.675Z,26.49
2018-09-22T13:04:58.371Z,27.24
2018-09-22T13:07:26.964Z,26.75
2018-09-22T13:09:55.552Z,26.60
2018-09-22T13:12:24.192Z,26.21
2018-09-22T13:14:52.801Z,26.54
2018-09-22T13:17:21.395Z,27.38
2018-09-22T13:19:50.012Z,26.94
2018-09-22T13:22:18.608Z,26.95
2018-09-22T13:24:47.551Z,26.09
2018-09-22T13:27:16.199Z,25.94
2018-09-22T13:29:44.814Z,26.10
2018-09-22T13:32:13.911Z,27.23
2018-09-22T13:34:42.674Z,26.68
2018-09-22T13:37:11.353Z,27.55
2018-09-22T13:39:39.931Z,27.29
2018-09-22T13:42:08.581Z,27.03
2018-09-22T13:44:37.178Z,26.34
2018-09-22T13:47:05.822Z,27.10
2018-09-22T13:49:34.464Z,27.36
2018-09-22T13:52:03.056Z,27.42
2018-09-22T13:54:31.644Z,27.21
2018-09-22T13:57:00.695Z,27.42
2018-09-22T13:59:29.320Z,27.03
2018-09-22T14:01:57.983Z,27.64
2018-09-22T14:04:26.593Z,27.43
2018-09-22T14:06:55.220Z,28.08
2018-09-22T14:09:23.792Z,26.77
2018-09-22T14:11:52.659Z,26.97
2018-09-22T14:14:21.243Z,27.07
2018-09-22T14:16:49.843Z,27.58
2018-09-22T14:19:18.892Z,27.17
2018-09-22T14:21:47.495Z,27.45
2018-09-22T14:24:16.101Z,27.80
2018-09-22T14:26:44.915Z,28.30
2018-09-22T14:29:13.496Z,28.59
2018-09-22T14:31:42.083Z,28.97
2018-09-22T14:34:10.891Z,28.72
2018-09-22T14:36:40.079Z,28.00
2018-09-22T14:39:08.836Z,29.15
2018-09-22T14:41:37.500Z,27.85
2018-09-22T14:44:06.707Z,28.52
2018-09-22T14:46:35.910Z,29.01
2018-09-22T14:49:04.551Z,28.76
2018-09-22T14:51:33.131Z,28.93
2018-09-22T14:54:01.701Z,30.13
2018-09-22T14:56:30.307Z,28.20
2018-09-22T14:58:58.908Z,28.51
2018-09-22T15:01:27.488Z,28.76
2018-09-22T15:03:56.199Z,28.21
2018-09-22T15:06:24.789Z,28.29
2018-09-22T15:08:53.359Z,29.00
2018-09-22T15:11:22.024Z,29.15
2018-09-22T15:13:50.593Z,28.26
2018-09-22T15:16:19.188Z,29.10
2018-09-22T15:18:47.843Z,28.37
2018-09-22T15:21:16.556Z,29.10
2018-09-22T15:23:45.182Z,28.76
2018-09-22T15:26:13.857Z,28.67
2018-09-22T15:28:42.963Z,28.80
2018-09-22T15:31:11.556Z,29.13
2018-09-22T15:33:40.196Z,29.59
2018-09-22T15:36:08.800Z,29.54
2018-09-22T15:38:37.508Z,29.57
2018-09-22T15:41:06.211Z,29.74
2018-09-22T15:43:34.825Z,30.36
2018-09-22T15:46:03.440Z,30.37
2018-09-22T15:48:32.102Z,30.18
2018-09-22T15:51:00.711Z,30.41
2018-09-22T15:53:29.339Z,30.98
2018-09-22T15:55:58.079Z,30.88
2018-09-22T15:58:26.941Z,30.83
2018-09-22T16:00:55.744Z,30.34
2018-09-22T16:03:24.344Z,30.80
2018-09-22T16:05:52.940Z,30.97
2018-09-22T16:08:21.548Z,31.10
2018-09-22T16:10:50.320Z,31.27
2018-09-22T16:13:18.920Z,31.24
2018-09-22T16:15:47.495Z,31.34
2018-09-22T16:18:16.224Z,30.73
2018-09-22T16:20:44.817Z,31.15
2018-09-22T16:23:14.097Z,31.44
2018-09-22T16:25:42.832Z,31.37
2018-09-22T16:28:11.535Z,30.92
2018-09-22T16:30:40.129Z,31.63
2018-09-22T16:33:08.850Z,31.50
2018-09-22T16:35:37.442Z,31.95
2018-09-22T16:38:06.020Z,32.36
2018-09-22T16:40:34.641Z,32.44
2018-09-22T16:43:04.198Z,33.23
2018-09-22T16:45:32.799Z,32.44
2018-09-22T16:48:01.488Z,32.34
2018-09-22T16:50:30.092Z,32.69
2018-09-22T16:52:58.700Z,31.91
2018-09-22T16:55:27.346Z,32.72
2018-09-22T16:57:55.927Z,32.19
2018-09-22T17:00:24.541Z,32.07
2018-09-22T17:02:53.520Z,31.93
2018-09-22T17:05:22.100Z,32.15
2018-09-22T17:07:50.707Z,34.26
2018-09-22T17:10:19.450Z,34.36
2018-09-22T17:12:48.205Z,34.29
2018-09-22T17:15:16.832Z,33.88
2018-09-22T17:17:45.992Z,33.95
2018-09-22T17:20:14.587Z,33.89
2018-09-22T17:22:43.185Z,33.40
2018-09-22T17:25:11.956Z,33.89
2018-09-22T17:27:40.567Z,33.32
2018-09-22T17:30:09.202Z,33.82
2018-09-22T17:32:37.893Z,33.47
2018-09-22T17:35:06.488Z,33.93
2018-09-22T17:37:35.083Z,34.08
2018-09-22T17:40:03.716Z,33.33
2018-09-22T17:42:32.333Z,33.87
2018-09-22T17:45:00.948Z,34.18
2018-09-22T17:47:29.793Z,33.63
2018-09-22T17:49:58.380Z,34.01
2018-09-22T17:52:26.968Z,34.17
2018-09-22T17:54:55.660Z,33.84
2018-09-22T17:57:24.284Z,34.50
2018-09-22T17:59:52.860Z,34.31
2018-09-22T18:02:21.591Z,34.51
2018-09-22T18:04:50.212Z,35.52
2018-09-22T18:07:18.838Z,35.29
2018-09-22T18:09:47.550Z,35.82
2018-09-22T18:12:16.213Z,36.43
2018-09-22T18:14:44.795Z,37.10
2018-09-22T18:17:13.506Z,35.99
2018-09-22T18:19:42.092Z,37.27
2018-09-22T18:22:10.813Z,37.38
2018-09-22T18:24:39.513Z,37.86
2018-09-22T18:27:08.096Z,39.29
2018-09-22T18:29:36.672Z,39.69
2018-09-22T18:32:05.548Z,39.51
2018-09-22T18:34:42.852Z,39.63
2018-09-22T18:37:11.805Z,39.81
2018-09-22T18:39:40.380Z,39.62
2018-09-22T18:42:09.079Z,39.73
2018-09-22T18:44:37.688Z,39.44
2018-09-22T18:47:06.508Z,38.94
2018-09-22T18:49:35.088Z,39.17
2018-09-22T18:52:03.707Z,40.04
2018-09-22T18:54:32.283Z,40.78
2018-09-22T18:57:00.875Z,41.05
2018-09-22T18:59:29.876Z,40.43
2018-09-22T19:01:58.492Z,40.98
2018-09-22T19:04:27.106Z,40.08
2018-09-22T19:06:55.829Z,41.00
2018-09-22T19:09:24.433Z,41.19
2018-09-22T19:11:53.076Z,40.77
2018-09-22T19:14:28.583Z,41.31
2018-09-22T19:16:59.950Z,40.82
2018-09-22T19:19:35.208Z,41.47
2018-09-22T19:22:08.680Z,41.20
2018-09-22T19:24:46.416Z,41.43
2018-09-22T19:27:21.306Z,42.72
2018-09-22T19:29:54.927Z,42.74
2018-09-22T19:32:29.648Z,42.83
2018-09-22T19:35:02.975Z,42.84
2018-09-22T19:37:35.216Z,42.20
2018-09-22T19:40:15.427Z,42.72
2018-09-22T19:43:00.251Z,42.98
2018-09-22T19:45:35.296Z,43.75
2018-09-22T19:48:10.210Z,44.84
2018-09-22T19:50:45.454Z,44.46
2018-09-22T19:53:14.020Z,44.12
2018-09-22T19:55:43.014Z,43.83
2018-09-22T19:58:11.868Z,44.09
2018-09-22T20:00:40.469Z,43.27
2018-09-22T20:03:09.052Z,44.00
2018-09-22T20:05:37.684Z,43.75
2018-09-22T20:08:06.333Z,44.25
2018-09-22T20:10:34.916Z,44.61
2018-09-22T20:13:03.929Z,44.17
2018-09-22T20:15:32.535Z,43.65
2018-09-22T20:18:01.140Z,44.12
2018-09-22T20:20:29.910Z,44.06
2018-09-22T20:22:58.511Z,44.04
2018-09-22T20:25:27.095Z,44.04
2018-09-22T20:27:55.727Z,44.77
2018-09-22T20:30:24.550Z,44.79
2018-09-22T20:32:53.188Z,45.37
2018-09-22T20:35:21.845Z,46.04
2018-09-22T20:37:50.443Z,46.20
2018-09-22T20:40:19.039Z,46.28
2018-09-22T20:42:47.995Z,46.70
2018-09-22T20:45:16.585Z,46.60
2018-09-22T20:47:45.536Z,46.57
2018-09-22T20:50:14.176Z,46.79
2018-09-22T20:52:42.768Z,47.13
2018-09-22T20:55:11.396Z,45.85
2018-09-22T20:57:40.100Z,46.29
2018-09-22T21:00:09.935Z,47.92
2018-09-22T21:02:39.169Z,49.46
2018-09-22T21:05:08.328Z,49.96
2018-09-22T21:07:37.572Z,49.46
2018-09-22T21:10:06.599Z,48.83
2018-09-22T21:12:35.363Z,48.98
2018-09-22T21:15:04.014Z,48.05
2018-09-22T21:17:32.651Z,48.40
2018-09-22T21:20:01.259Z,50.77
2018-09-22T21:22:30.932Z,51.18
2018-09-22T21:25:00.564Z,51.95
2018-09-22T21:27:29.190Z,52.65
2018-09-22T21:29:57.763Z,52.49
2018-09-22T21:32:28.321Z,53.91
2018-09-22T21:34:56.931Z,53.01
2018-09-22T21:37:26.869Z,53.38
2018-09-22T21:39:56.680Z,53.79
2018-09-22T21:42:25.378Z,53.82
2018-09-22T21:44:54.072Z,54.21
2018-09-22T21:47:23.237Z,54.18
2018-09-22T21:49:51.792Z,54.35
2018-09-22T21:52:20.462Z,54.26
2018-09-22T21:54:49.498Z,54.53
2018-09-22T21:57:18.124Z,54.41
2018-09-22T21:59:46.815Z,55.52
2018-09-22T22:02:15.634Z,56.08
2018-09-22T22:04:44.372Z,56.25
2018-09-22T22:07:13.006Z,55.33
2018-09-22T22:09:41.831Z,54.91
2018-09-22T22:12:10.428Z,54.70
2018-09-22T22:14:39.076Z,54.44
2018-09-22T22:17:07.811Z,53.91
2018-09-22T22:19:36.731Z,54.22
2018-09-22T22:22:05.331Z,53.61
2018-09-22T22:24:34.157Z,52.45
2018-09-22T22:27:02.763Z,52.79
2018-09-22T22:29:31.335Z,51.55
2018-09-22T22:31:59.943Z,52.79
2018-09-22T22:34:28.512Z,52.05
2018-09-22T22:36:57.124Z,52.07
2018-09-22T22:39:26.540Z,51.59
2018-09-22T22:41:55.211Z,51.21
2018-09-22T22:44:23.901Z,51.23
2018-09-22T22:46:52.612Z,51.52
2018-09-22T22:49:21.252Z,51.38
2018-09-22T22:51:49.877Z,51.61
2018-09-22T22:54:18.634Z,50.82
2018-09-22T22:56:47.200Z,50.43
2018-09-22T22:59:15.808Z,50.31
2018-09-22T23:01:44.428Z,49.38
2018-09-22T23:04:13.023Z,49.30
2018-09-22T23:06:41.866Z,49.55
2018-09-22T23:09:11.024Z,49.14
2018-09-22T23:11:39.676Z,49.11
2018-09-22T23:14:08.364Z,48.25
2018-09-22T23:16:36.971Z,48.93
2018-09-22T23:19:05.697Z,48.76
2018-09-22T23:21:34.346Z,50.05
2018-09-22T23:24:03.146Z,49.42
2018-09-22T23:26:31.924Z,49.37
2018-09-22T23:29:00.527Z,48.69
2018-09-22T23:31:29.256Z,48.29
2018-09-22T23:33:57.835Z,48.84
2018-09-22T23:36:26.419Z,48.29
2018-09-22T23:38:55.095Z,48.73
2018-09-22T23:41:23.777Z,49.05
2018-09-22T23:43:52.379Z,50.39
2018-09-22T23:46:20.977Z,51.13
2018-09-22T23:48:49.536Z,52.16
2018-09-22T23:51:18.140Z,52.52
2018-09-22T23:53:46.760Z,52.83
2018-09-22T23:56:15.536Z,52.98
2018-09-22T23:58:44.533Z,53.65
